Etusivu
METAR-TAF:

METAR-TAF

Lentoasemat :

Akulivik, Quebec, Kanada

Leveyspiiri: 60-49N, Pituuspiiri: 078-09W, korkeus merenpinnasta: 20 m

Tämänhetkinen sää

Tämä raportti tehtiin 14 minuuttia sitten, kello 19.53 UTC
Tuuli 18 kn idästä/koillisesta puuskistuen 25 kn:hen
Lämpötila -2°C
Kosteus 86%
Ilmanpaine 998 hPa
Näkyvyys: 6.4 km
Pilvistä 3300 ft:n korkeudessa
heikkoa lumisadetta

METAR: CYKO 031953Z 06018G25KT 4SM -SN OVC033 M02/M04 A2946 RMK SC8 SLP980

Aika: 15:07 (20:07 UTC)


TAF: puuttuu

Säähavainnot ja -ennusteet yli 4000 lentoasemalta (METAR- ja TAF-raportit).

Käytössä olevat sääasemat on merkitty karttaan keltaisilla ja punaisilla pisteillä.

Aseta hiiri pisteen päälle nähdäksesi sääaseman nimen.

Klikkaa sitten nähdäksesi säähavainnot ja -ennusteet.

Kartan vaihtaminen: klikkaa mustalla rastilla varustettuja vihreitä pisteitä, niin voit zoomata sisään; viivalla varustettua vihreää pistettä, niin voit zoomata ulos tai vihreitä nuolia, niin pääset viereisille kartoille.


METAR-TAF: